Belville, North Carolina
Current Conditions -  °F | °C
As of 4:53 PM on Saturday 25 Oct 2014 (Local Time) from KILM Reporting Station
Clear Clear  
Wind Chill: 71°   Ceiling: Unl
Heat Index: 71°   Visibility: 10mi
Dew Point: 50°   Wind: 7mph
Humidity: 47%   Direction: 170°S
Pressure: 29.9"   Gusts: NA
Location:  34.2757°N, 78.1004°W
Report Text: KILM 252053Z AUTO 17006KT 10SM CLR 22/10 A2990 RMK AO2 SLP126 T02170100 55013
Loading
Personal Weather Stations






























Interactive Weather Map
Tropical Storm Tracking
New forecast layout! Learn more

10-Day Weather Forecast

Advertisements
Track Severe Weather on mobile